Warning: fopen(/var/www/metroair/shared/private/wxdata/TAF/AVWX/taf_KOKC): failed to open stream: Permission denied in /var/www/metroair/shared/private/library/orig_library/lib_airport.php on line 533

Warning: fwrite() expects parameter 1 to be resource, boolean given in /var/www/metroair/shared/private/library/orig_library/lib_airport.php on line 534

Warning: fclose() expects parameter 1 to be resource, boolean given in /var/www/metroair/shared/private/library/orig_library/lib_airport.php on line 535

MET3421 - Oklahoma City to Kansas City

Bombardier Dash-8-Q400
857AG
1 hr 00 mins
272 nm
Scheduled - Daily

Bid/PiRep Status

Bid was submitted on Nov 01 2016.

PiRep # 73876: Approved by Dave Nichols on November 2nd, 2016 4:08 UTC

Departure

Departing from
Oklahoma City (OKC)
Departure gate
8
Scheduled Departure
GMT 1335
Local 0735
METAR KOKC 161159Z 22009KT 10SM OVC005 04/04 A2985 RMK AO2 T00440039
TAF KOKC 161128Z 1612/1712 22008KT P6SM OVC004 TEMPO 1612/1615 2SM BR FM161800 25013KT P6SM OVC015 FM162100 27014KT P6SM SCT025 SCT250 FM170000 31009KT P6SM SCT250 TEMPO 1709/1712 4SM BR
  • No charts available

Arrival

Arriving at
Kansas City (MCI)
Arrival gate
Scheduled Arrival
GMT 1435
Local 0835
METAR KMCI 161153Z 09009KT 3SM -RA BR OVC004 02/00 A2994 RMK AO2 SFC VIS 6 SLP144 P0015 60037 70053 T00170000 10017 20006 56029
TAF KMCI 161202Z 1612/1712 09009KT 6SM -RA BR OVC004 FM161500 14006KT 6SM BR VCSH OVC012 FM162100 18006KT P6SM -SHRA OVC008 FM170200 27006KT 3SM BR VCSH OVC003

Route Map

Planning Resources

KOKC,IRW,TUL,DOSOA,KMCI
KOKC VIA IRW IBAPE PER EMP JHAWK HOOZE RUGB NOHS KMCI
KOKC ICT UTEKE KMCI
LOKC DCT CNU STAR KMCI
KOKC-PER-EMP-TOP-KMCI
Route:
OFP Layout:
Units:
Detailed Navlog:
ETOPS Planning:
Plan Stepclimbs:
Runway Analysis:
Include NOTAMS:
FIR NOTAMS:
Flight Maps:

Return Flights

MET2281
Bombardier Dash-8-Q200
1500 GMT
MET2285
Bombardier Dash-8-Q200
2140 GMT
MET3420
Bombardier Dash-8-Q400
0225 GMT
MET3422
Bombardier Dash-8-Q400
1905 GMT

Popularity

Hub Current Bids PiReps this month Total PiReps
KMCI 0 0 87
KLAX 0 0 0
KBOS 0 0 0